sensor_id;sensor_type;location;lat;lon;timestamp;pressure;altitude;pressure_sealevel;temperature;humidity
13553;BME280;6847;48.830;9.116;2023-07-20T00:02:26;97775.94;;;23.35;38.38
13553;BME280;6847;48.830;9.116;2023-07-20T00:05:00;97748.03;;;23.01;38.58
13553;BME280;6847;48.830;9.116;2023-07-20T00:07:27;97777.53;;;23.16;38.64
13553;BME280;6847;48.830;9.116;2023-07-20T00:09:54;97781.31;;;23.08;38.55
13553;BME280;6847;48.830;9.116;2023-07-20T00:12:25;97778.81;;;23.03;38.72
13553;BME280;6847;48.830;9.116;2023-07-20T00:14:55;97783.47;;;22.99;38.69
13553;BME280;6847;48.830;9.116;2023-07-20T00:17:22;97771.38;;;22.88;38.42
13553;BME280;6847;48.830;9.116;2023-07-20T00:19:51;97779.31;;;22.90;38.64
13553;BME280;6847;48.830;9.116;2023-07-20T00:22:19;97782.28;;;22.81;38.68
13553;BME280;6847;48.830;9.116;2023-07-20T00:24:48;97787.25;;;22.75;38.71
13553;BME280;6847;48.830;9.116;2023-07-20T00:27:18;97778.09;;;22.71;38.67
13553;BME280;6847;48.830;9.116;2023-07-20T00:29:46;97783.53;;;22.68;38.64
13553;BME280;6847;48.830;9.116;2023-07-20T00:32:14;97784.97;;;22.62;38.66
13553;BME280;6847;48.830;9.116;2023-07-20T00:34:42;97788.69;;;22.53;38.90
13553;BME280;6847;48.830;9.116;2023-07-20T00:37:09;97782.31;;;22.49;38.81
13553;BME280;6847;48.830;9.116;2023-07-20T00:39:37;97785.78;;;22.46;38.74
13553;BME280;6847;48.830;9.116;2023-07-20T00:42:07;97785.59;;;22.39;38.81
13553;BME280;6847;48.830;9.116;2023-07-20T00:44:36;97783.09;;;22.34;38.82
13553;BME280;6847;48.830;9.116;2023-07-20T00:47:03;97782.69;;;22.32;38.88
13553;BME280;6847;48.830;9.116;2023-07-20T00:49:31;97783.38;;;22.29;38.77
13553;BME280;6847;48.830;9.116;2023-07-20T00:52:01;97785.69;;;22.27;38.84
13553;BME280;6847;48.830;9.116;2023-07-20T00:54:33;97782.94;;;22.27;39.00
13553;BME280;6847;48.830;9.116;2023-07-20T00:57:06;97787.13;;;22.21;38.88
13553;BME280;6847;48.830;9.116;2023-07-20T00:59:35;97786.22;;;22.17;38.67
13553;BME280;6847;48.830;9.116;2023-07-20T01:02:02;97787.66;;;22.11;38.94
13553;BME280;6847;48.830;9.116;2023-07-20T01:04:32;97788.34;;;22.08;39.05
13553;BME280;6847;48.830;9.116;2023-07-20T01:07:06;97789.34;;;22.00;39.12
13553;BME280;6847;48.830;9.116;2023-07-20T01:09:46;97789.78;;;22.02;39.18
13553;BME280;6847;48.830;9.116;2023-07-20T01:12:22;97784.75;;;21.92;39.19
13553;BME280;6847;48.830;9.116;2023-07-20T01:14:52;97777.66;;;21.91;39.15
13553;BME280;6847;48.830;9.116;2023-07-20T01:17:22;97777.53;;;21.87;39.08
13553;BME280;6847;48.830;9.116;2023-07-20T01:19:49;97770.34;;;21.83;39.12
13553;BME280;6847;48.830;9.116;2023-07-20T01:22:33;97768.28;;;21.79;39.29
13553;BME280;6847;48.830;9.116;2023-07-20T01:25:21;97780.75;;;21.73;39.26
13553;BME280;6847;48.830;9.116;2023-07-20T01:33:56;97775.97;;;21.58;39.53
13553;BME280;6847;48.830;9.116;2023-07-20T01:36:29;97778.53;;;21.51;39.47
13553;BME280;6847;48.830;9.116;2023-07-20T01:39:01;97782.00;;;21.48;39.60
13553;BME280;6847;48.830;9.116;2023-07-20T01:41:30;97780.38;;;21.47;39.62
13553;BME280;6847;48.830;9.116;2023-07-20T01:43:57;97776.41;;;21.45;39.64
13553;BME280;6847;48.830;9.116;2023-07-20T01:46:25;97777.44;;;21.40;39.79
13553;BME280;6847;48.830;9.116;2023-07-20T01:48:57;97773.78;;;21.36;39.72
13553;BME280;6847;48.830;9.116;2023-07-20T01:51:24;97786.19;;;21.30;39.81
13553;BME280;6847;48.830;9.116;2023-07-20T01:53:53;97793.53;;;21.26;39.93
13553;BME280;6847;48.830;9.116;2023-07-20T01:56:20;97788.41;;;21.24;40.00
13553;BME280;6847;48.830;9.116;2023-07-20T01:58:46;97788.28;;;21.21;39.91
13553;BME280;6847;48.830;9.116;2023-07-20T02:01:13;97785.75;;;21.16;40.07
13553;BME280;6847;48.830;9.116;2023-07-20T02:03:40;97786.00;;;21.11;40.11
13553;BME280;6847;48.830;9.116;2023-07-20T02:06:08;97787.84;;;21.06;40.07
13553;BME280;6847;48.830;9.116;2023-07-20T02:08:36;97783.03;;;21.03;40.29
13553;BME280;6847;48.830;9.116;2023-07-20T02:11:02;97785.34;;;21.01;40.12
13553;BME280;6847;48.830;9.116;2023-07-20T02:13:36;97789.91;;;20.97;40.35
13553;BME280;6847;48.830;9.116;2023-07-20T02:16:03;97788.09;;;20.89;40.35
13553;BME280;6847;48.830;9.116;2023-07-20T02:18:43;97785.59;;;20.84;40.47
13553;BME280;6847;48.830;9.116;2023-07-20T02:21:14;97794.56;;;20.81;40.52
13553;BME280;6847;48.830;9.116;2023-07-20T02:23:42;97783.88;;;20.80;40.52
13553;BME280;6847;48.830;9.116;2023-07-20T02:26:12;97749.19;;;20.51;40.61
13553;BME280;6847;48.830;9.116;2023-07-20T02:28:43;97784.34;;;20.69;40.46
13553;BME280;6847;48.830;9.116;2023-07-20T02:31:27;97784.25;;;20.66;40.49
13553;BME280;6847;48.830;9.116;2023-07-20T02:33:55;97787.22;;;20.61;40.70
13553;BME280;6847;48.830;9.116;2023-07-20T02:36:25;97784.03;;;20.59;40.61
13553;BME280;6847;48.830;9.116;2023-07-20T02:38:55;97793.88;;;20.60;40.83
13553;BME280;6847;48.830;9.116;2023-07-20T02:41:29;97790.22;;;20.56;40.86
13553;BME280;6847;48.830;9.116;2023-07-20T02:43:59;97792.50;;;20.54;40.88
13553;BME280;6847;48.830;9.116;2023-07-20T02:46:27;97795.72;;;20.56;41.15
13553;BME280;6847;48.830;9.116;2023-07-20T02:48:57;97796.53;;;20.56;41.05
13553;BME280;6847;48.830;9.116;2023-07-20T02:51:27;97791.81;;;20.57;40.92
13553;BME280;6847;48.830;9.116;2023-07-20T02:53:57;97791.72;;;20.53;41.13
13553;BME280;6847;48.830;9.116;2023-07-20T02:56:31;97799.50;;;20.51;41.11
13553;BME280;6847;48.830;9.116;2023-07-20T02:59:01;97806.16;;;20.50;41.14
13553;BME280;6847;48.830;9.116;2023-07-20T03:01:31;97779.19;;;20.31;41.01
13553;BME280;6847;48.830;9.116;2023-07-20T03:04:19;97799.38;;;20.48;41.31
13553;BME280;6847;48.830;9.116;2023-07-20T03:06:50;97806.38;;;20.45;41.45
13553;BME280;6847;48.830;9.116;2023-07-20T03:09:17;97807.88;;;20.43;41.36
13553;BME280;6847;48.830;9.116;2023-07-20T03:11:45;97812.09;;;20.40;41.25
13553;BME280;6847;48.830;9.116;2023-07-20T03:14:18;97811.28;;;20.40;41.61
13553;BME280;6847;48.830;9.116;2023-07-20T03:16:48;97814.03;;;20.40;41.58
13553;BME280;6847;48.830;9.116;2023-07-20T03:19:19;97814.03;;;20.40;41.40
13553;BME280;6847;48.830;9.116;2023-07-20T03:21:55;97807.34;;;20.28;41.68
13553;BME280;6847;48.830;9.116;2023-07-20T03:24:22;97806.69;;;20.31;41.73
13553;BME280;6847;48.830;9.116;2023-07-20T03:26:59;97810.47;;;20.27;41.49
13553;BME280;6847;48.830;9.116;2023-07-20T03:29:33;97817.31;;;20.21;41.96
13553;BME280;6847;48.830;9.116;2023-07-20T03:32:11;97789.25;;;20.03;42.04
13553;BME280;6847;48.830;9.116;2023-07-20T03:34:45;97784.19;;;19.93;42.18
13553;BME280;6847;48.830;9.116;2023-07-20T03:37:14;97805.88;;;20.07;42.06
13553;BME280;6847;48.830;9.116;2023-07-20T03:39:45;97785.78;;;19.94;42.06
13553;BME280;6847;48.830;9.116;2023-07-20T03:42:12;97810.00;;;20.13;41.94
13553;BME280;6847;48.830;9.116;2023-07-20T03:44:45;97819.38;;;20.12;41.94
13553;BME280;6847;48.830;9.116;2023-07-20T03:47:15;97813.75;;;20.08;42.17
13553;BME280;6847;48.830;9.116;2023-07-20T03:49:46;97555.28;;;18.41;42.06
13553;BME280;6847;48.830;9.116;2023-07-20T03:52:23;97797.13;;;19.92;42.31
13553;BME280;6847;48.830;9.116;2023-07-20T03:54:53;97816.72;;;20.03;42.38
13553;BME280;6847;48.830;9.116;2023-07-20T03:57:19;97816.72;;;20.03;42.20
13553;BME280;6847;48.830;9.116;2023-07-20T03:59:52;97758.50;;;19.65;42.16
13553;BME280;6847;48.830;9.116;2023-07-20T04:02:24;97823.59;;;19.97;42.33
13553;BME280;6847;48.830;9.116;2023-07-20T04:04:53;97816.50;;;19.96;42.32
13553;BME280;6847;48.830;9.116;2023-07-20T04:07:23;97817.84;;;19.90;42.56
13553;BME280;6847;48.830;9.116;2023-07-20T04:10:03;97822.00;;;19.96;42.48
13553;BME280;6847;48.830;9.116;2023-07-20T04:12:35;97819.69;;;19.98;42.54
13553;BME280;6847;48.830;9.116;2023-07-20T04:15:02;97643.47;;;18.85;42.56
13553;BME280;6847;48.830;9.116;2023-07-20T04:17:40;97825.78;;;20.04;42.64
13553;BME280;6847;48.830;9.116;2023-07-20T04:20:14;97775.97;;;19.60;42.77
13553;BME280;6847;48.830;9.116;2023-07-20T04:22:45;97834.59;;;19.97;42.60
13553;BME280;6847;48.830;9.116;2023-07-20T04:25:18;97832.28;;;19.99;42.98
13553;BME280;6847;48.830;9.116;2023-07-20T04:27:55;97836.44;;;20.05;42.62
13553;BME280;6847;48.830;9.116;2023-07-20T04:30:21;97838.28;;;20.13;42.93
13553;BME280;6847;48.830;9.116;2023-07-20T04:33:11;97810.00;;;20.13;42.53
13553;BME280;6847;48.830;9.116;2023-07-20T04:35:45;97835.16;;;20.36;42.58
13553;BME280;6847;48.830;9.116;2023-07-20T04:38:28;97808.88;;;20.26;42.74
13553;BME280;6847;48.830;9.116;2023-07-20T04:40:58;97828.81;;;20.47;42.89
13553;BME280;6847;48.830;9.116;2023-07-20T04:43:35;97835.25;;;20.51;42.65
13553;BME280;6847;48.830;9.116;2023-07-20T04:46:02;97835.03;;;20.56;42.73
13553;BME280;6847;48.830;9.116;2023-07-20T04:48:31;97768.41;;;20.14;42.77
13553;BME280;6847;48.830;9.116;2023-07-20T04:51:01;97833.53;;;20.71;42.82
13553;BME280;6847;48.830;9.116;2023-07-20T04:53:32;97835.03;;;20.81;42.84
13553;BME280;6847;48.830;9.116;2023-07-20T04:56:00;97786.31;;;20.57;42.77
13553;BME280;6847;48.830;9.116;2023-07-20T04:58:30;97835.69;;;21.02;42.78
13553;BME280;6847;48.830;9.116;2023-07-20T05:01:06;97837.16;;;21.12;42.81
13553;BME280;6847;48.830;9.116;2023-07-20T05:03:39;97839.00;;;21.20;42.74
13553;BME280;6847;48.830;9.116;2023-07-20T05:06:11;97579.63;;;19.54;42.83
13553;BME280;6847;48.830;9.116;2023-07-20T05:08:43;97842.88;;;21.31;42.82
13553;BME280;6847;48.830;9.116;2023-07-20T05:11:13;97845.59;;;21.43;42.76
13553;BME280;6847;48.830;9.116;2023-07-20T05:13:44;97841.22;;;21.54;42.62
13553;BME280;6847;48.830;9.116;2023-07-20T05:16:14;97843.44;;;21.64;42.77
13553;BME280;6847;48.830;9.116;2023-07-20T05:18:43;97834.66;;;21.74;42.71
13553;BME280;6847;48.830;9.116;2023-07-20T05:21:12;97834.16;;;21.85;42.71
13553;BME280;6847;48.830;9.116;2023-07-20T05:23:53;97698.59;;;21.08;42.64
13553;BME280;6847;48.830;9.116;2023-07-20T05:29:06;97841.19;;;22.10;42.78
13553;BME280;6847;48.830;9.116;2023-07-20T05:31:36;97839.06;;;22.19;42.77
13553;BME280;6847;48.830;9.116;2023-07-20T05:34:06;97842.47;;;22.28;42.68
13553;BME280;6847;48.830;9.116;2023-07-20T05:36:32;97836.41;;;22.38;42.71
13553;BME280;6847;48.830;9.116;2023-07-20T05:39:05;97788.63;;;22.19;42.49
13553;BME280;6847;48.830;9.116;2023-07-20T05:41:35;97841.66;;;22.59;42.62
13553;BME280;6847;48.830;9.116;2023-07-20T05:44:02;97834.81;;;22.69;42.51
13553;BME280;6847;48.830;9.116;2023-07-20T05:46:46;97843.00;;;22.81;42.51
13553;BME280;6847;48.830;9.116;2023-07-20T05:49:28;97837.66;;;22.88;42.51
13553;BME280;6847;48.830;9.116;2023-07-20T05:51:58;97826.75;;;22.95;42.42
13553;BME280;6847;48.830;9.116;2023-07-20T05:54:35;97776.50;;;22.70;42.67
13553;BME280;6847;48.830;9.116;2023-07-20T05:57:04;97802.34;;;22.97;42.07
13553;BME280;6847;48.830;9.116;2023-07-20T05:59:35;97831.50;;;23.30;42.13
13553;BME280;6847;48.830;9.116;2023-07-20T06:02:08;97835.69;;;23.43;42.24
13553;BME280;6847;48.830;9.116;2023-07-20T06:04:46;97839.97;;;23.56;42.10
13553;BME280;6847;48.830;9.116;2023-07-20T06:07:18;97840.97;;;23.67;42.18
13553;BME280;6847;48.830;9.116;2023-07-20T06:10:01;97835.44;;;23.67;41.98
13553;BME280;6847;48.830;9.116;2023-07-20T06:12:37;97845.34;;;23.87;41.91
13553;BME280;6847;48.830;9.116;2023-07-20T06:15:24;97834.56;;;23.82;42.04
13553;BME280;6847;48.830;9.116;2023-07-20T06:17:56;97828.59;;;23.80;42.13
13553;BME280;6847;48.830;9.116;2023-07-20T06:20:27;97847.50;;;23.97;41.92
13553;BME280;6847;48.830;9.116;2023-07-20T06:22:57;97845.31;;;24.07;42.11
13553;BME280;6847;48.830;9.116;2023-07-20T06:25:39;97840.94;;;24.06;42.01
13553;BME280;6847;48.830;9.116;2023-07-20T06:28:07;97840.22;;;24.09;41.99
13553;BME280;6847;48.830;9.116;2023-07-20T06:30:39;97839.34;;;24.05;42.03
13553;BME280;6847;48.830;9.116;2023-07-20T06:33:06;97833.69;;;23.97;42.17
13553;BME280;6847;48.830;9.116;2023-07-20T06:35:36;97770.72;;;23.68;42.07
13553;BME280;6847;48.830;9.116;2023-07-20T06:38:33;97846.13;;;24.30;42.05
13553;BME280;6847;48.830;9.116;2023-07-20T06:41:07;97720.81;;;23.61;41.86
13553;BME280;6847;48.830;9.116;2023-07-20T06:44:01;97841.41;;;24.53;41.60
13553;BME280;6847;48.830;9.116;2023-07-20T06:46:33;97847.50;;;24.62;41.75
13553;BME280;6847;48.830;9.116;2023-07-20T06:49:15;97720.66;;;23.96;41.69
13553;BME280;6847;48.830;9.116;2023-07-20T06:52:30;97574.56;;;23.07;41.73
13553;BME280;6847;48.830;9.116;2023-07-20T06:55:06;97839.84;;;24.79;41.63
13553;BME280;6847;48.830;9.116;2023-07-20T06:57:47;97836.88;;;24.68;41.77
13553;BME280;6847;48.830;9.116;2023-07-20T07:00:14;97793.28;;;24.35;41.75
13553;BME280;6847;48.830;9.116;2023-07-20T07:02:56;97822.91;;;24.57;41.75
13553;BME280;6847;48.830;9.116;2023-07-20T07:05:46;97827.69;;;24.60;41.62
13553;BME280;6847;48.830;9.116;2023-07-20T07:08:36;97835.78;;;24.73;41.64
13553;BME280;6847;48.830;9.116;2023-07-20T07:11:06;97803.09;;;24.55;41.55
13553;BME280;6847;48.830;9.116;2023-07-20T07:13:44;97836.03;;;24.87;41.33
13553;BME280;6847;48.830;9.116;2023-07-20T07:16:17;97810.44;;;24.70;41.27
13553;BME280;6847;48.830;9.116;2023-07-20T07:18:44;97847.84;;;24.84;41.57
13553;BME280;6847;48.830;9.116;2023-07-20T07:21:38;97832.66;;;24.74;41.51
13553;BME280;6847;48.830;9.116;2023-07-20T07:24:07;97840.06;;;24.66;41.54
13553;BME280;6847;48.830;9.116;2023-07-20T07:29:29;97800.63;;;24.50;41.41
13553;BME280;6847;48.830;9.116;2023-07-20T07:31:58;97833.66;;;24.89;41.32
13553;BME280;6847;48.830;9.116;2023-07-20T07:34:31;97790.75;;;24.76;41.07
13553;BME280;6847;48.830;9.116;2023-07-20T07:36:59;97834.09;;;25.17;41.00
13553;BME280;6847;48.830;9.116;2023-07-20T07:39:38;97784.75;;;24.96;40.91
13553;BME280;6847;48.830;9.116;2023-07-20T07:42:09;97830.28;;;25.25;40.83
13553;BME280;6847;48.830;9.116;2023-07-20T07:44:47;97827.38;;;25.44;40.63
13553;BME280;6847;48.830;9.116;2023-07-20T07:47:13;97826.72;;;25.55;40.62
13553;BME280;6847;48.830;9.116;2023-07-20T07:49:49;97837.09;;;25.61;40.32
13553;BME280;6847;48.830;9.116;2023-07-20T07:52:34;97798.13;;;25.51;40.41
13553;BME280;6847;48.830;9.116;2023-07-20T07:58:08;97826.06;;;26.39;39.48
13553;BME280;6847;48.830;9.116;2023-07-20T08:00:56;97769.00;;;26.45;39.21
13553;BME280;6847;48.830;9.116;2023-07-20T08:03:26;97834.09;;;26.95;39.32
13553;BME280;6847;48.830;9.116;2023-07-20T08:06:13;97545.69;;;25.29;39.20
13553;BME280;6847;48.830;9.116;2023-07-20T08:08:58;97832.31;;;27.27;38.55
13553;BME280;6847;48.830;9.116;2023-07-20T08:11:25;97836.31;;;27.30;38.52
13553;BME280;6847;48.830;9.116;2023-07-20T08:13:55;97827.53;;;27.21;38.85
13553;BME280;6847;48.830;9.116;2023-07-20T08:16:30;97840.19;;;27.15;38.92
13553;BME280;6847;48.830;9.116;2023-07-20T08:19:03;97795.81;;;26.74;39.22
13553;BME280;6847;48.830;9.116;2023-07-20T08:21:38;97840.78;;;26.90;39.13
13553;BME280;6847;48.830;9.116;2023-07-20T08:24:11;97779.31;;;26.41;39.00
13553;BME280;6847;48.830;9.116;2023-07-20T08:26:43;97829.22;;;26.81;38.85
13553;BME280;6847;48.830;9.116;2023-07-20T08:29:13;97832.19;;;27.03;38.94
13553;BME280;6847;48.830;9.116;2023-07-20T08:32:00;97818.22;;;27.65;38.77
13553;BME280;6847;48.830;9.116;2023-07-20T08:34:27;97785.00;;;28.43;37.04
13553;BME280;6847;48.830;9.116;2023-07-20T08:36:53;97835.56;;;30.17;34.90
13553;BME280;6847;48.830;9.116;2023-07-20T08:39:22;97805.31;;;31.12;33.50
13553;BME280;6847;48.830;9.116;2023-07-20T08:41:54;97839.06;;;30.87;34.53
13553;BME280;6847;48.830;9.116;2023-07-20T08:44:21;97834.88;;;29.92;35.97
13553;BME280;6847;48.830;9.116;2023-07-20T08:46:49;97837.13;;;29.02;36.83
13553;BME280;6847;48.830;9.116;2023-07-20T08:49:32;97834.56;;;30.56;34.90
13553;BME280;6847;48.830;9.116;2023-07-20T08:51:59;97798.53;;;32.61;32.35
13553;BME280;6847;48.830;9.116;2023-07-20T08:54:36;97785.72;;;34.42;30.25
13553;BME280;6847;48.830;9.116;2023-07-20T08:57:07;97823.22;;;36.16;28.95
13553;BME280;6847;48.830;9.116;2023-07-20T08:59:54;97838.97;;;37.84;27.94
13553;BME280;6847;48.830;9.116;2023-07-20T09:02:29;97834.75;;;38.10;28.17
13553;BME280;6847;48.830;9.116;2023-07-20T09:05:24;97829.88;;;37.11;28.98
13553;BME280;6847;48.830;9.116;2023-07-20T09:07:54;97829.19;;;37.75;28.71
13553;BME280;6847;48.830;9.116;2023-07-20T09:10:30;97816.63;;;36.22;30.07
13553;BME280;6847;48.830;9.116;2023-07-20T09:13:07;97843.06;;;36.00;30.33
13553;BME280;6847;48.830;9.116;2023-07-20T09:15:38;97822.69;;;36.59;29.37
13553;BME280;6847;48.830;9.116;2023-07-20T09:18:34;97845.75;;;37.64;28.00
13553;BME280;6847;48.830;9.116;2023-07-20T09:21:07;97833.88;;;38.22;27.49
13553;BME280;6847;48.830;9.116;2023-07-20T09:23:40;97839.16;;;38.82;26.61
13553;BME280;6847;48.830;9.116;2023-07-20T09:26:16;97846.19;;;39.36;26.46
13553;BME280;6847;48.830;9.116;2023-07-20T09:28:52;97692.94;;;39.15;25.30
13553;BME280;6847;48.830;9.116;2023-07-20T09:31:24;97811.63;;;40.61;25.07
13553;BME280;6847;48.830;9.116;2023-07-20T09:34:00;97839.34;;;40.99;24.98
13553;BME280;6847;48.830;9.116;2023-07-20T09:36:36;97810.16;;;40.99;24.58
13553;BME280;6847;48.830;9.116;2023-07-20T09:39:14;97837.59;;;41.02;24.88
13553;BME280;6847;48.830;9.116;2023-07-20T09:41:48;97831.47;;;40.94;24.67
13553;BME280;6847;48.830;9.116;2023-07-20T09:44:29;97801.81;;;40.72;24.40
13553;BME280;6847;48.830;9.116;2023-07-20T09:46:57;97838.69;;;41.28;23.77
13553;BME280;6847;48.830;9.116;2023-07-20T09:49:39;97808.22;;;41.53;23.45
13553;BME280;6847;48.830;9.116;2023-07-20T09:52:08;97833.25;;;41.78;23.58
13553;BME280;6847;48.830;9.116;2023-07-20T09:54:44;97841.78;;;41.78;23.19
13553;BME280;6847;48.830;9.116;2023-07-20T09:57:29;97833.19;;;41.25;23.96
13553;BME280;6847;48.830;9.116;2023-07-20T10:00:03;97841.97;;;40.46;24.04
13553;BME280;6847;48.830;9.116;2023-07-20T10:02:44;97832.09;;;38.46;25.63
13553;BME280;6847;48.830;9.116;2023-07-20T10:05:13;97823.28;;;37.61;25.95
13553;BME280;6847;48.830;9.116;2023-07-20T10:07:47;97823.25;;;37.83;25.51
13553;BME280;6847;48.830;9.116;2023-07-20T10:10:28;97831.38;;;38.24;24.47
13553;BME280;6847;48.830;9.116;2023-07-20T10:12:59;97819.63;;;38.04;24.27
13553;BME280;6847;48.830;9.116;2023-07-20T10:15:43;97729.03;;;37.55;24.27
13553;BME280;6847;48.830;9.116;2023-07-20T10:18:17;97787.72;;;38.03;24.41
13553;BME280;6847;48.830;9.116;2023-07-20T10:20:51;97759.53;;;38.62;23.04
13553;BME280;6847;48.830;9.116;2023-07-20T10:23:31;97813.75;;;39.28;23.20
13553;BME280;6847;48.830;9.116;2023-07-20T10:26:04;97803.72;;;39.27;22.76
13553;BME280;6847;48.830;9.116;2023-07-20T10:28:36;97809.41;;;39.45;22.50
13553;BME280;6847;48.830;9.116;2023-07-20T10:31:10;97807.31;;;38.20;23.55
13553;BME280;6847;48.830;9.116;2023-07-20T10:33:39;97769.19;;;37.50;23.98
13553;BME280;6847;48.830;9.116;2023-07-20T10:36:09;97793.78;;;37.93;23.20
13553;BME280;6847;48.830;9.116;2023-07-20T10:39:02;97789.44;;;38.72;22.99
13553;BME280;6847;48.830;9.116;2023-07-20T10:41:39;97782.31;;;39.53;21.83
13553;BME280;6847;48.830;9.116;2023-07-20T10:44:08;97804.56;;;40.15;21.65
13553;BME280;6847;48.830;9.116;2023-07-20T10:46:45;97785.75;;;39.84;21.68
13553;BME280;6847;48.830;9.116;2023-07-20T10:49:20;97790.78;;;39.62;21.83
13553;BME280;6847;48.830;9.116;2023-07-20T10:51:58;97782.94;;;39.48;21.89
13553;BME280;6847;48.830;9.116;2023-07-20T10:54:48;97792.84;;;39.16;21.82
13553;BME280;6847;48.830;9.116;2023-07-20T10:57:38;97767.09;;;38.56;22.21
13553;BME280;6847;48.830;9.116;2023-07-20T11:00:22;97713.34;;;38.56;21.80
13553;BME280;6847;48.830;9.116;2023-07-20T11:03:00;97789.03;;;39.28;21.63
13553;BME280;6847;48.830;9.116;2023-07-20T11:05:40;97793.50;;;39.56;20.82
13553;BME280;6847;48.830;9.116;2023-07-20T11:08:43;97781.50;;;39.16;21.47
13553;BME280;6847;48.830;9.116;2023-07-20T11:11:23;97780.00;;;38.66;21.67
13553;BME280;6847;48.830;9.116;2023-07-20T11:13:58;97738.00;;;38.55;22.02
13553;BME280;6847;48.830;9.116;2023-07-20T11:16:38;97765.78;;;39.24;21.39
13553;BME280;6847;48.830;9.116;2023-07-20T11:19:22;97775.63;;;39.92;20.77
13553;BME280;6847;48.830;9.116;2023-07-20T11:21:58;97787.00;;;40.25;20.74
13553;BME280;6847;48.830;9.116;2023-07-20T11:24:26;97754.53;;;39.93;20.56
13553;BME280;6847;48.830;9.116;2023-07-20T11:27:17;97752.72;;;40.14;20.65
13553;BME280;6847;48.830;9.116;2023-07-20T11:29:59;97785.81;;;40.50;20.42
13553;BME280;6847;48.830;9.116;2023-07-20T11:32:32;97765.59;;;40.34;20.38
13553;BME280;6847;48.830;9.116;2023-07-20T11:34:59;97601.94;;;39.32;20.15
13553;BME280;6847;48.830;9.116;2023-07-20T11:37:25;97771.06;;;40.37;20.18
13553;BME280;6847;48.830;9.116;2023-07-20T11:40:02;97713.53;;;40.04;20.13
13553;BME280;6847;48.830;9.116;2023-07-20T11:42:37;97772.94;;;40.40;20.05
13553;BME280;6847;48.830;9.116;2023-07-20T11:45:11;97764.66;;;39.85;20.41
13553;BME280;6847;48.830;9.116;2023-07-20T11:48:01;97742.31;;;39.23;20.25
13553;BME280;6847;48.830;9.116;2023-07-20T11:50:28;97772.72;;;39.41;20.62
13553;BME280;6847;48.830;9.116;2023-07-20T11:55:50;97765.63;;;39.46;20.17
13553;BME280;6847;48.830;9.116;2023-07-20T11:58:41;97758.06;;;38.97;20.82
13553;BME280;6847;48.830;9.116;2023-07-20T12:01:12;97754.34;;;38.60;20.39
13553;BME280;6847;48.830;9.116;2023-07-20T12:03:41;97755.50;;;38.32;20.66
13553;BME280;6847;48.830;9.116;2023-07-20T12:06:14;97743.97;;;38.08;20.74
13553;BME280;6847;48.830;9.116;2023-07-20T12:08:47;97750.00;;;37.97;20.97
13553;BME280;6847;48.830;9.116;2023-07-20T12:11:36;97690.66;;;37.66;20.78
13553;BME280;6847;48.830;9.116;2023-07-20T12:14:11;97685.19;;;37.41;21.17
13553;BME280;6847;48.830;9.116;2023-07-20T12:16:38;97731.91;;;37.42;21.47
13553;BME280;6847;48.830;9.116;2023-07-20T12:19:07;97666.38;;;36.82;21.38
13553;BME280;6847;48.830;9.116;2023-07-20T12:21:41;97734.56;;;37.15;21.61
13553;BME280;6847;48.830;9.116;2023-07-20T12:24:11;97664.03;;;36.67;21.60
13553;BME280;6847;48.830;9.116;2023-07-20T12:26:38;97724.13;;;36.90;21.52
13553;BME280;6847;48.830;9.116;2023-07-20T12:29:05;97717.91;;;36.95;21.45
13553;BME280;6847;48.830;9.116;2023-07-20T12:31:46;97609.75;;;36.42;21.23
13553;BME280;6847;48.830;9.116;2023-07-20T12:34:26;97716.09;;;37.23;21.06
13553;BME280;6847;48.830;9.116;2023-07-20T12:36:55;97710.91;;;37.43;21.01
13553;BME280;6847;48.830;9.116;2023-07-20T12:39:24;97600.69;;;36.81;21.40
13553;BME280;6847;48.830;9.116;2023-07-20T12:41:54;97709.72;;;37.53;21.39
13553;BME280;6847;48.830;9.116;2023-07-20T12:44:23;97708.41;;;37.67;21.25
13553;BME280;6847;48.830;9.116;2023-07-20T12:46:56;97709.94;;;37.90;20.96
13553;BME280;6847;48.830;9.116;2023-07-20T12:49:22;97512.00;;;36.82;21.11
13553;BME280;6847;48.830;9.116;2023-07-20T12:51:49;97703.22;;;38.36;20.92
13553;BME280;6847;48.830;9.116;2023-07-20T12:54:20;97636.09;;;38.19;20.36
13553;BME280;6847;48.830;9.116;2023-07-20T12:56:52;97662.25;;;38.68;20.60
13553;BME280;6847;48.830;9.116;2023-07-20T12:59:23;97701.25;;;38.92;20.60
13553;BME280;6847;48.830;9.116;2023-07-20T13:01:58;97697.50;;;39.13;20.27
13553;BME280;6847;48.830;9.116;2023-07-20T13:04:29;97544.97;;;38.42;20.17
13553;BME280;6847;48.830;9.116;2023-07-20T13:07:34;97636.53;;;39.54;19.54
13553;BME280;6847;48.830;9.116;2023-07-20T13:10:39;97665.09;;;39.83;19.43
13553;BME280;6847;48.830;9.116;2023-07-20T13:13:19;97657.63;;;39.53;19.68
13553;BME280;6847;48.830;9.116;2023-07-20T13:15:59;97622.56;;;39.41;19.14
13553;BME280;6847;48.830;9.116;2023-07-20T13:18:29;97675.00;;;40.21;19.21
13553;BME280;6847;48.830;9.116;2023-07-20T13:21:02;97676.66;;;40.60;18.74
13553;BME280;6847;48.830;9.116;2023-07-20T13:23:42;97594.19;;;40.40;18.55
13553;BME280;6847;48.830;9.116;2023-07-20T13:26:23;97440.34;;;39.59;18.44
13553;BME280;6847;48.830;9.116;2023-07-20T13:29:08;97683.44;;;41.01;18.49
13553;BME280;6847;48.830;9.116;2023-07-20T13:31:37;97681.13;;;40.52;18.82
13553;BME280;6847;48.830;9.116;2023-07-20T13:34:20;97679.47;;;40.37;19.05
13553;BME280;6847;48.830;9.116;2023-07-20T13:36:48;97608.00;;;40.00;18.75
13553;BME280;6847;48.830;9.116;2023-07-20T13:39:36;97679.97;;;40.59;18.61
13553;BME280;6847;48.830;9.116;2023-07-20T13:42:09;97515.34;;;39.49;18.42
13553;BME280;6847;48.830;9.116;2023-07-20T13:44:38;97668.09;;;40.70;18.54
13553;BME280;6847;48.830;9.116;2023-07-20T13:47:05;97669.59;;;40.80;18.48
13553;BME280;6847;48.830;9.116;2023-07-20T13:49:35;97672.03;;;40.87;18.38
13553;BME280;6847;48.830;9.116;2023-07-20T13:52:06;97605.41;;;40.58;18.08
13553;BME280;6847;48.830;9.116;2023-07-20T13:54:52;97668.72;;;40.74;18.36
13553;BME280;6847;48.830;9.116;2023-07-20T13:57:19;97658.06;;;39.61;18.90
13553;BME280;6847;48.830;9.116;2023-07-20T13:59:45;97649.69;;;38.97;18.97
13553;BME280;6847;48.830;9.116;2023-07-20T14:02:32;97624.06;;;38.55;18.86
13553;BME280;6847;48.830;9.116;2023-07-20T14:05:10;97630.97;;;38.81;19.09